sensor_id;sensor_type;location;lat;lon;timestamp;pressure;altitude;pressure_sealevel;temperature;humidity
70976;BME280;58635;51.198;6.010;2024-02-16T00:01:00;100853.50;;;15.28;58.23
70976;BME280;58635;51.198;6.010;2024-02-16T00:03:26;100849.50;;;15.26;58.11
70976;BME280;58635;51.198;6.010;2024-02-16T00:05:52;100846.34;;;15.24;58.04
70976;BME280;58635;51.198;6.010;2024-02-16T00:08:18;100842.13;;;15.23;57.96
70976;BME280;58635;51.198;6.010;2024-02-16T00:10:43;100842.38;;;15.21;57.62
70976;BME280;58635;51.198;6.010;2024-02-16T00:13:09;100843.38;;;15.20;58.08
70976;BME280;58635;51.198;6.010;2024-02-16T00:15:35;100847.00;;;15.19;57.94
70976;BME280;58635;51.198;6.010;2024-02-16T00:18:00;100848.59;;;15.20;57.84
70976;BME280;58635;51.198;6.010;2024-02-16T00:20:26;100847.00;;;15.19;57.77
70976;BME280;58635;51.198;6.010;2024-02-16T00:22:51;100846.00;;;15.20;58.09
70976;BME280;58635;51.198;6.010;2024-02-16T00:25:16;100840.56;;;15.21;57.82
70976;BME280;58635;51.198;6.010;2024-02-16T00:27:43;100841.34;;;15.22;57.84
70976;BME280;58635;51.198;6.010;2024-02-16T00:30:09;100849.16;;;15.22;57.81
70976;BME280;58635;51.198;6.010;2024-02-16T00:32:35;100841.34;;;15.22;57.93
70976;BME280;58635;51.198;6.010;2024-02-16T00:35:02;100839.53;;;15.23;57.89
70976;BME280;58635;51.198;6.010;2024-02-16T00:37:28;100840.31;;;15.23;57.96
70976;BME280;58635;51.198;6.010;2024-02-16T00:39:53;100835.91;;;15.24;57.89
70976;BME280;58635;51.198;6.010;2024-02-16T00:42:20;100840.09;;;15.25;57.59
70976;BME280;58635;51.198;6.010;2024-02-16T00:44:48;100835.91;;;15.24;57.63
70976;BME280;58635;51.198;6.010;2024-02-16T00:47:13;100833.06;;;15.25;57.59
70976;BME280;58635;51.198;6.010;2024-02-16T00:49:42;100842.28;;;15.28;57.57
70976;BME280;58635;51.198;6.010;2024-02-16T00:52:08;100833.44;;;15.29;57.59
70976;BME280;58635;51.198;6.010;2024-02-16T00:54:36;100829.03;;;15.29;57.36
70976;BME280;58635;51.198;6.010;2024-02-16T00:57:01;100826.66;;;15.28;57.15
70976;BME280;58635;51.198;6.010;2024-02-16T00:59:28;100830.38;;;15.32;57.30
70976;BME280;58635;51.198;6.010;2024-02-16T01:01:54;100824.16;;;15.33;57.21
70976;BME280;58635;51.198;6.010;2024-02-16T01:04:19;100831.75;;;15.34;57.01
70976;BME280;58635;51.198;6.010;2024-02-16T01:06:44;100828.13;;;15.35;57.02
70976;BME280;58635;51.198;6.010;2024-02-16T01:09:11;100821.88;;;15.36;56.85
70976;BME280;58635;51.198;6.010;2024-02-16T01:11:40;100825.84;;;15.39;56.80
70976;BME280;58635;51.198;6.010;2024-02-16T01:14:06;100825.66;;;15.40;56.80
70976;BME280;58635;51.198;6.010;2024-02-16T01:16:32;100820.22;;;15.42;56.96
70976;BME280;58635;51.198;6.010;2024-02-16T01:18:57;100819.44;;;15.41;56.90
70976;BME280;58635;51.198;6.010;2024-02-16T01:21:22;100817.38;;;15.43;56.87
70976;BME280;58635;51.198;6.010;2024-02-16T01:23:48;100824.41;;;15.43;57.10
70976;BME280;58635;51.198;6.010;2024-02-16T01:26:13;100836.41;;;15.44;56.86
70976;BME280;58635;51.198;6.010;2024-02-16T01:28:39;100833.59;;;15.45;56.82
70976;BME280;58635;51.198;6.010;2024-02-16T01:31:04;100834.16;;;15.47;56.51
70976;BME280;58635;51.198;6.010;2024-02-16T01:33:30;100839.38;;;15.47;56.76
70976;BME280;58635;51.198;6.010;2024-02-16T01:35:58;100840.16;;;15.48;56.40
70976;BME280;58635;51.198;6.010;2024-02-16T01:38:23;100839.38;;;15.47;56.65
70976;BME280;58635;51.198;6.010;2024-02-16T01:40:49;100839.38;;;15.47;56.63
70976;BME280;58635;51.198;6.010;2024-02-16T01:43:19;100834.16;;;15.47;56.50
70976;BME280;58635;51.198;6.010;2024-02-16T01:45:45;100836.19;;;15.45;56.60
70976;BME280;58635;51.198;6.010;2024-02-16T01:48:10;100835.41;;;15.45;56.25
70976;BME280;58635;51.198;6.010;2024-02-16T01:50:35;100832.78;;;15.45;56.31
70976;BME280;58635;51.198;6.010;2024-02-16T01:53:01;100832.56;;;15.46;56.29
70976;BME280;58635;51.198;6.010;2024-02-16T01:55:26;100821.34;;;15.46;56.27
70976;BME280;58635;51.198;6.010;2024-02-16T01:57:52;100816.13;;;15.46;56.30
70976;BME280;58635;51.198;6.010;2024-02-16T02:00:17;100823.72;;;15.47;56.16
70976;BME280;58635;51.198;6.010;2024-02-16T02:02:44;100823.72;;;15.47;56.17
70976;BME280;58635;51.198;6.010;2024-02-16T02:05:10;100814.09;;;15.48;56.38
70976;BME280;58635;51.198;6.010;2024-02-16T02:07:36;100820.91;;;15.49;56.10
70976;BME280;58635;51.198;6.010;2024-02-16T02:10:02;100813.88;;;15.49;56.25
70976;BME280;58635;51.198;6.010;2024-02-16T02:12:28;100811.25;;;15.49;56.02
70976;BME280;58635;51.198;6.010;2024-02-16T02:14:53;100809.44;;;15.50;56.16
70976;BME280;58635;51.198;6.010;2024-02-16T02:17:19;100806.63;;;15.52;55.99
70976;BME280;58635;51.198;6.010;2024-02-16T02:19:48;100810.59;;;15.54;56.00
70976;BME280;58635;51.198;6.010;2024-02-16T02:22:20;100810.59;;;15.54;56.02
70976;BME280;58635;51.198;6.010;2024-02-16T02:24:46;100806.97;;;15.55;55.99
70976;BME280;58635;51.198;6.010;2024-02-16T02:27:12;100802.78;;;15.54;56.10
70976;BME280;58635;51.198;6.010;2024-02-16T02:29:39;100801.75;;;15.55;55.94
70976;BME280;58635;51.198;6.010;2024-02-16T02:32:05;100797.34;;;15.56;56.14
70976;BME280;58635;51.198;6.010;2024-02-16T02:34:30;100800.75;;;15.56;55.83
70976;BME280;58635;51.198;6.010;2024-02-16T02:36:56;100796.31;;;15.57;55.37
70976;BME280;58635;51.198;6.010;2024-02-16T02:39:21;100803.34;;;15.56;55.68
70976;BME280;58635;51.198;6.010;2024-02-16T02:41:47;100804.13;;;15.57;55.84
70976;BME280;58635;51.198;6.010;2024-02-16T02:44:12;100795.28;;;15.58;55.85
70976;BME280;58635;51.198;6.010;2024-02-16T02:46:37;100798.94;;;15.57;55.71
70976;BME280;58635;51.198;6.010;2024-02-16T02:49:03;100797.91;;;15.58;55.69
70976;BME280;58635;51.198;6.010;2024-02-16T02:51:29;100799.28;;;15.60;55.71
70976;BME280;58635;51.198;6.010;2024-02-16T02:53:54;100791.25;;;15.62;55.48
70976;BME280;58635;51.198;6.010;2024-02-16T02:56:20;100781.03;;;15.60;55.67
70976;BME280;58635;51.198;6.010;2024-02-16T02:58:45;100771.41;;;15.61;55.63
70976;BME280;58635;51.198;6.010;2024-02-16T03:01:12;100780.59;;;15.63;55.70
70976;BME280;58635;51.198;6.010;2024-02-16T03:03:38;100770.38;;;15.62;55.36
70976;BME280;58635;51.198;6.010;2024-02-16T03:06:04;100766.78;;;15.63;55.47
70976;BME280;58635;51.198;6.010;2024-02-16T03:08:29;100773.56;;;15.64;55.48
70976;BME280;58635;51.198;6.010;2024-02-16T03:10:55;100767.34;;;15.65;55.49
70976;BME280;58635;51.198;6.010;2024-02-16T03:13:20;100769.94;;;15.65;55.35
70976;BME280;58635;51.198;6.010;2024-02-16T03:15:46;100767.34;;;15.65;55.38
70976;BME280;58635;51.198;6.010;2024-02-16T03:18:11;100766.31;;;15.66;55.47
70976;BME280;58635;51.198;6.010;2024-02-16T03:20:36;100766.31;;;15.66;55.55
70976;BME280;58635;51.198;6.010;2024-02-16T03:23:02;100760.09;;;15.67;55.37
70976;BME280;58635;51.198;6.010;2024-02-16T03:25:28;100761.91;;;15.66;55.49
70976;BME280;58635;51.198;6.010;2024-02-16T03:27:54;100761.91;;;15.66;55.54
70976;BME280;58635;51.198;6.010;2024-02-16T03:30:20;100760.31;;;15.65;55.56
70976;BME280;58635;51.198;6.010;2024-02-16T03:32:49;100767.34;;;15.65;55.22
70976;BME280;58635;51.198;6.010;2024-02-16T03:35:15;100768.56;;;15.62;55.60
70976;BME280;58635;51.198;6.010;2024-02-16T03:37:41;100772.00;;;15.63;55.57
70976;BME280;58635;51.198;6.010;2024-02-16T03:40:07;100759.16;;;15.61;55.79
70976;BME280;58635;51.198;6.010;2024-02-16T03:42:35;100753.34;;;15.59;55.66
70976;BME280;58635;51.198;6.010;2024-02-16T03:45:02;100764.00;;;15.58;55.71
70976;BME280;58635;51.198;6.010;2024-02-16T03:47:27;100766.63;;;15.58;55.64
70976;BME280;58635;51.198;6.010;2024-02-16T03:49:53;100769.69;;;15.55;55.71
70976;BME280;58635;51.198;6.010;2024-02-16T03:52:18;100771.97;;;15.51;56.14
70976;BME280;58635;51.198;6.010;2024-02-16T03:54:43;100778.97;;;15.50;56.02
70976;BME280;58635;51.198;6.010;2024-02-16T03:57:12;100773.75;;;15.50;55.93
70976;BME280;58635;51.198;6.010;2024-02-16T03:59:38;100779.41;;;15.47;56.58
70976;BME280;58635;51.198;6.010;2024-02-16T04:02:03;100778.84;;;15.45;56.43
70976;BME280;58635;51.198;6.010;2024-02-16T04:04:28;100773.06;;;15.43;56.43
70976;BME280;58635;51.198;6.010;2024-02-16T04:06:54;100772.28;;;15.43;56.29
70976;BME280;58635;51.198;6.010;2024-02-16T04:09:19;100773.31;;;15.42;56.65
70976;BME280;58635;51.198;6.010;2024-02-16T04:11:46;100773.53;;;15.40;56.50
70976;BME280;58635;51.198;6.010;2024-02-16T04:14:11;100769.13;;;15.41;56.70
70976;BME280;58635;51.198;6.010;2024-02-16T04:16:37;100771.94;;;15.39;56.78
70976;BME280;58635;51.198;6.010;2024-02-16T04:19:02;100778.94;;;15.39;56.82
70976;BME280;58635;51.198;6.010;2024-02-16T04:21:28;100770.34;;;15.38;57.12
70976;BME280;58635;51.198;6.010;2024-02-16T04:23:53;100776.78;;;15.36;57.09
70976;BME280;58635;51.198;6.010;2024-02-16T04:26:19;100779.97;;;15.38;57.06
70976;BME280;58635;51.198;6.010;2024-02-16T04:28:44;100783.59;;;15.37;57.28
70976;BME280;58635;51.198;6.010;2024-02-16T04:31:10;100774.97;;;15.36;57.28
70976;BME280;58635;51.198;6.010;2024-02-16T04:33:35;100776.00;;;15.35;57.19
70976;BME280;58635;51.198;6.010;2024-02-16T04:36:00;100777.59;;;15.36;57.26
70976;BME280;58635;51.198;6.010;2024-02-16T04:38:26;100781.66;;;15.32;57.45
70976;BME280;58635;51.198;6.010;2024-02-16T04:40:51;100785.06;;;15.33;57.52
70976;BME280;58635;51.198;6.010;2024-02-16T04:43:16;100786.88;;;15.32;57.64
70976;BME280;58635;51.198;6.010;2024-02-16T04:45:43;100784.50;;;15.31;57.47
70976;BME280;58635;51.198;6.010;2024-02-16T04:48:08;100784.50;;;15.31;57.50
70976;BME280;58635;51.198;6.010;2024-02-16T04:50:34;100787.09;;;15.31;57.76
70976;BME280;58635;51.198;6.010;2024-02-16T04:53:00;100792.09;;;15.32;57.77
70976;BME280;58635;51.198;6.010;2024-02-16T04:55:29;100792.31;;;15.31;57.94
70976;BME280;58635;51.198;6.010;2024-02-16T04:57:56;100790.50;;;15.31;57.83
70976;BME280;58635;51.198;6.010;2024-02-16T05:00:21;100795.72;;;15.31;57.83
70976;BME280;58635;51.198;6.010;2024-02-16T05:02:47;100785.28;;;15.31;57.89
70976;BME280;58635;51.198;6.010;2024-02-16T05:05:12;100785.53;;;15.30;57.84
70976;BME280;58635;51.198;6.010;2024-02-16T05:07:38;100778.50;;;15.30;58.07
70976;BME280;58635;51.198;6.010;2024-02-16T05:10:08;100776.47;;;15.32;58.09
70976;BME280;58635;51.198;6.010;2024-02-16T05:12:33;100773.84;;;15.32;57.80
70976;BME280;58635;51.198;6.010;2024-02-16T05:14:59;100766.81;;;15.33;58.12
70976;BME280;58635;51.198;6.010;2024-02-16T05:17:25;100771.81;;;15.34;57.98
70976;BME280;58635;51.198;6.010;2024-02-16T05:19:50;100770.00;;;15.35;58.02
70976;BME280;58635;51.198;6.010;2024-02-16T05:22:16;100782.00;;;15.36;57.96
70976;BME280;58635;51.198;6.010;2024-02-16T05:24:44;100783.59;;;15.37;58.09
70976;BME280;58635;51.198;6.010;2024-02-16T05:27:10;100778.59;;;15.35;58.06
70976;BME280;58635;51.198;6.010;2024-02-16T05:29:36;100781.22;;;15.35;58.28
70976;BME280;58635;51.198;6.010;2024-02-16T05:32:01;100778.59;;;15.35;58.17
70976;BME280;58635;51.198;6.010;2024-02-16T05:34:27;100780.19;;;15.36;58.36
70976;BME280;58635;51.198;6.010;2024-02-16T05:36:57;100790.63;;;15.36;58.28
70976;BME280;58635;51.198;6.010;2024-02-16T05:39:22;100787.22;;;15.36;58.57
70976;BME280;58635;51.198;6.010;2024-02-16T05:41:57;100780.75;;;15.38;58.50
70976;BME280;58635;51.198;6.010;2024-02-16T05:44:22;100788.38;;;15.40;58.28
70976;BME280;58635;51.198;6.010;2024-02-16T05:46:48;100791.78;;;15.40;58.44
70976;BME280;58635;51.198;6.010;2024-02-16T05:49:16;100782.94;;;15.41;58.36
70976;BME280;58635;51.198;6.010;2024-02-16T05:51:41;100787.13;;;15.42;58.36
70976;BME280;58635;51.198;6.010;2024-02-16T05:54:07;100792.34;;;15.42;58.54
70976;BME280;58635;51.198;6.010;2024-02-16T05:56:34;100793.94;;;15.43;58.45
70976;BME280;58635;51.198;6.010;2024-02-16T05:59:00;100793.94;;;15.43;58.49
70976;BME280;58635;51.198;6.010;2024-02-16T06:01:25;100806.50;;;15.46;58.36
70976;BME280;58635;51.198;6.010;2024-02-16T06:03:53;100798.69;;;15.46;58.44
70976;BME280;58635;51.198;6.010;2024-02-16T06:06:18;100800.50;;;15.46;58.75
70976;BME280;58635;51.198;6.010;2024-02-16T06:08:43;100794.25;;;15.47;58.62
70976;BME280;58635;51.198;6.010;2024-02-16T06:11:09;100800.03;;;15.49;58.53
70976;BME280;58635;51.198;6.010;2024-02-16T06:13:34;100805.84;;;15.51;58.59
70976;BME280;58635;51.198;6.010;2024-02-16T06:15:59;100809.25;;;15.52;58.75
70976;BME280;58635;51.198;6.010;2024-02-16T06:18:25;100801.44;;;15.52;58.55
70976;BME280;58635;51.198;6.010;2024-02-16T06:20:54;100804.81;;;15.52;58.83
70976;BME280;58635;51.198;6.010;2024-02-16T06:23:20;100802.22;;;15.52;58.92
70976;BME280;58635;51.198;6.010;2024-02-16T06:25:45;100815.03;;;15.54;58.62
70976;BME280;58635;51.198;6.010;2024-02-16T06:28:10;100812.41;;;15.54;58.66
70976;BME280;58635;51.198;6.010;2024-02-16T06:30:36;100819.44;;;15.53;58.61
70976;BME280;58635;51.198;6.010;2024-02-16T06:33:01;100825.69;;;15.52;58.94
70976;BME280;58635;51.198;6.010;2024-02-16T06:35:29;100830.09;;;15.52;59.00
70976;BME280;58635;51.198;6.010;2024-02-16T06:37:54;100837.91;;;15.52;58.79
70976;BME280;58635;51.198;6.010;2024-02-16T06:40:20;100833.69;;;15.50;58.84
70976;BME280;58635;51.198;6.010;2024-02-16T06:42:46;100839.94;;;15.49;59.09
70976;BME280;58635;51.198;6.010;2024-02-16T06:45:11;100843.56;;;15.48;58.92
70976;BME280;58635;51.198;6.010;2024-02-16T06:47:37;100846.97;;;15.49;58.91
70976;BME280;58635;51.198;6.010;2024-02-16T06:50:02;100842.19;;;15.46;59.12
70976;BME280;58635;51.198;6.010;2024-02-16T06:52:28;100850.81;;;15.46;59.18
70976;BME280;58635;51.198;6.010;2024-02-16T06:54:53;100855.22;;;15.46;59.30
70976;BME280;58635;51.198;6.010;2024-02-16T06:57:19;100872.22;;;15.48;59.35
70976;BME280;58635;51.198;6.010;2024-02-16T06:59:45;100867.59;;;15.50;59.14
70976;BME280;58635;51.198;6.010;2024-02-16T07:02:11;100867.38;;;15.52;59.38
70976;BME280;58635;51.198;6.010;2024-02-16T07:04:40;100875.53;;;15.56;59.30
70976;BME280;58635;51.198;6.010;2024-02-16T07:07:05;100878.94;;;15.56;59.36
70976;BME280;58635;51.198;6.010;2024-02-16T07:09:31;100874.66;;;15.62;59.09
70976;BME280;58635;51.198;6.010;2024-02-16T07:11:57;100880.25;;;15.65;59.25
70976;BME280;58635;51.198;6.010;2024-02-16T07:14:23;100875.59;;;15.67;59.07
70976;BME280;58635;51.198;6.010;2024-02-16T07:16:49;100888.75;;;15.72;59.18
70976;BME280;58635;51.198;6.010;2024-02-16T07:19:14;100893.53;;;15.75;59.10
70976;BME280;58635;51.198;6.010;2024-02-16T07:21:40;100890.25;;;15.80;59.00
70976;BME280;58635;51.198;6.010;2024-02-16T07:24:06;100892.16;;;15.85;59.29
70976;BME280;58635;51.198;6.010;2024-02-16T07:26:31;100905.34;;;15.90;59.00
70976;BME280;58635;51.198;6.010;2024-02-16T07:28:57;100904.44;;;15.96;59.06
70976;BME280;58635;51.198;6.010;2024-02-16T07:31:34;100904.56;;;16.01;58.64
70976;BME280;58635;51.198;6.010;2024-02-16T07:34:01;100908.06;;;16.06;58.75
70976;BME280;58635;51.198;6.010;2024-02-16T07:36:26;100910.03;;;16.11;58.65
70976;BME280;58635;51.198;6.010;2024-02-16T07:38:52;100907.75;;;16.15;58.67
70976;BME280;58635;51.198;6.010;2024-02-16T07:41:17;100919.88;;;16.21;58.74
70976;BME280;58635;51.198;6.010;2024-02-16T07:43:43;100919.19;;;16.25;58.57
70976;BME280;58635;51.198;6.010;2024-02-16T07:46:08;100921.91;;;16.30;58.73
70976;BME280;58635;51.198;6.010;2024-02-16T07:48:34;100926.47;;;16.35;58.50
70976;BME280;58635;51.198;6.010;2024-02-16T07:51:00;100918.97;;;16.38;58.58
70976;BME280;58635;51.198;6.010;2024-02-16T07:53:28;100929.88;;;16.47;58.22
70976;BME280;58635;51.198;6.010;2024-02-16T07:55:53;100926.56;;;16.52;57.95
70976;BME280;58635;51.198;6.010;2024-02-16T07:58:19;100937.09;;;16.57;58.40
70976;BME280;58635;51.198;6.010;2024-02-16T08:00:44;100924.41;;;16.60;58.05
70976;BME280;58635;51.198;6.010;2024-02-16T08:03:10;100939.59;;;16.63;57.84
70976;BME280;58635;51.198;6.010;2024-02-16T08:05:35;100940.53;;;16.69;57.98
70976;BME280;58635;51.198;6.010;2024-02-16T08:08:00;100937.25;;;16.74;58.05
70976;BME280;58635;51.198;6.010;2024-02-16T08:10:26;100948.00;;;16.77;57.50
70976;BME280;58635;51.198;6.010;2024-02-16T08:12:51;100944.38;;;16.78;57.82
70976;BME280;58635;51.198;6.010;2024-02-16T08:15:18;100949.16;;;16.81;57.69
70976;BME280;58635;51.198;6.010;2024-02-16T08:17:48;100945.28;;;16.84;57.56
70976;BME280;58635;51.198;6.010;2024-02-16T08:20:14;100943.22;;;16.86;57.52
70976;BME280;58635;51.198;6.010;2024-02-16T08:22:40;100961.59;;;16.91;57.63
70976;BME280;58635;51.198;6.010;2024-02-16T08:25:06;100965.38;;;16.95;57.55
70976;BME280;58635;51.198;6.010;2024-02-16T08:27:32;100970.38;;;16.97;57.39
70976;BME280;58635;51.198;6.010;2024-02-16T08:29:57;100970.69;;;17.00;57.67
70976;BME280;58635;51.198;6.010;2024-02-16T08:32:23;100969.66;;;17.01;57.73
70976;BME280;58635;51.198;6.010;2024-02-16T08:34:48;100972.50;;;17.00;57.23
70976;BME280;58635;51.198;6.010;2024-02-16T08:37:13;100970.69;;;17.00;57.62
70976;BME280;58635;51.198;6.010;2024-02-16T08:39:39;100987.38;;;16.99;57.61
70976;BME280;58635;51.198;6.010;2024-02-16T08:42:04;100990.56;;;17.01;57.23
70976;BME280;58635;51.198;6.010;2024-02-16T08:44:30;100991.34;;;17.02;57.35
70976;BME280;58635;51.198;6.010;2024-02-16T08:46:55;100995.31;;;17.04;57.64
70976;BME280;58635;51.198;6.010;2024-02-16T08:49:21;100994.31;;;17.05;57.45
70976;BME280;58635;51.198;6.010;2024-02-16T08:51:47;101005.91;;;17.09;57.35
70976;BME280;58635;51.198;6.010;2024-02-16T08:54:13;101009.06;;;17.11;57.41
70976;BME280;58635;51.198;6.010;2024-02-16T08:56:38;101008.59;;;17.14;57.17
70976;BME280;58635;51.198;6.010;2024-02-16T08:59:05;101003.50;;;17.19;57.35
70976;BME280;58635;51.198;6.010;2024-02-16T09:01:34;101012.22;;;17.25;57.15
70976;BME280;58635;51.198;6.010;2024-02-16T09:04:00;101012.78;;;17.27;57.04
70976;BME280;58635;51.198;6.010;2024-02-16T09:06:26;101017.19;;;17.27;57.21
70976;BME280;58635;51.198;6.010;2024-02-16T09:08:52;101025.84;;;17.27;57.10
70976;BME280;58635;51.198;6.010;2024-02-16T09:11:17;101013.13;;;17.31;57.14
70976;BME280;58635;51.198;6.010;2024-02-16T09:13:43;101018.91;;;17.33;57.47
70976;BME280;58635;51.198;6.010;2024-02-16T09:16:09;101012.66;;;17.34;57.41
70976;BME280;58635;51.198;6.010;2024-02-16T09:18:34;101022.06;;;17.35;57.54
70976;BME280;58635;51.198;6.010;2024-02-16T09:20:59;101019.78;;;17.38;57.42
70976;BME280;58635;51.198;6.010;2024-02-16T09:23:25;101023.78;;;17.41;57.17
70976;BME280;58635;51.198;6.010;2024-02-16T09:25:51;101031.38;;;17.42;57.41
70976;BME280;58635;51.198;6.010;2024-02-16T09:28:17;101031.72;;;17.46;57.18
70976;BME280;58635;51.198;6.010;2024-02-16T09:30:46;101038.53;;;17.47;57.37
70976;BME280;58635;51.198;6.010;2024-02-16T09:33:11;101035.13;;;17.46;57.40
70976;BME280;58635;51.198;6.010;2024-02-16T09:35:36;101039.06;;;17.49;57.17
70976;BME280;58635;51.198;6.010;2024-02-16T09:38:02;101040.66;;;17.50;57.02
70976;BME280;58635;51.198;6.010;2024-02-16T09:40:28;101044.66;;;17.52;56.90
70976;BME280;58635;51.198;6.010;2024-02-16T09:42:53;101055.13;;;17.52;56.97
70976;BME280;58635;51.198;6.010;2024-02-16T09:45:19;101058.28;;;17.54;57.08
70976;BME280;58635;51.198;6.010;2024-02-16T09:47:48;101070.56;;;17.54;57.06
70976;BME280;58635;51.198;6.010;2024-02-16T09:50:15;101061.94;;;17.53;57.27
70976;BME280;58635;51.198;6.010;2024-02-16T09:52:42;101076.03;;;17.52;57.34
70976;BME280;58635;51.198;6.010;2024-02-16T09:55:12;101085.59;;;17.47;57.27
70976;BME280;58635;51.198;6.010;2024-02-16T09:57:38;101077.97;;;17.45;57.56
70976;BME280;58635;51.198;6.010;2024-02-16T10:00:04;101086.63;;;17.46;57.77
70976;BME280;58635;51.198;6.010;2024-02-16T10:02:45;101088.22;;;17.47;58.01
70976;BME280;58635;51.198;6.010;2024-02-16T10:05:21;101086.94;;;17.49;57.60
70976;BME280;58635;51.198;6.010;2024-02-16T10:07:47;101090.91;;;17.52;57.73
70976;BME280;58635;51.198;6.010;2024-02-16T10:12:46;101103.63;;;17.60;57.76
70976;BME280;58635;51.198;6.010;2024-02-16T10:15:11;101112.03;;;17.62;57.74
70976;BME280;58635;51.198;6.010;2024-02-16T10:17:36;101119.44;;;17.65;57.65
70976;BME280;58635;51.198;6.010;2024-02-16T10:20:02;101112.41;;;17.66;57.70
70976;BME280;58635;51.198;6.010;2024-02-16T10:22:31;101118.19;;;17.68;58.06
70976;BME280;58635;51.198;6.010;2024-02-16T10:25:09;101123.78;;;17.71;57.59
70976;BME280;58635;51.198;6.010;2024-02-16T10:27:37;101121.94;;;17.72;57.90
70976;BME280;58635;51.198;6.010;2024-02-16T10:30:03;101134.78;;;17.73;58.16
70976;BME280;58635;51.198;6.010;2024-02-16T10:32:36;101128.53;;;17.74;58.09
70976;BME280;58635;51.198;6.010;2024-02-16T10:35:03;101132.53;;;17.77;57.75
70976;BME280;58635;51.198;6.010;2024-02-16T10:37:30;101137.53;;;17.78;57.91
70976;BME280;58635;51.198;6.010;2024-02-16T10:39:56;101142.75;;;17.78;57.73
70976;BME280;58635;51.198;6.010;2024-02-16T10:42:23;101150.38;;;17.80;57.74
70976;BME280;58635;51.198;6.010;2024-02-16T10:44:52;101156.63;;;17.79;57.89
70976;BME280;58635;51.198;6.010;2024-02-16T10:47:17;101153.78;;;17.80;58.02
70976;BME280;58635;51.198;6.010;2024-02-16T10:49:44;101152.19;;;17.79;58.67
70976;BME280;58635;51.198;6.010;2024-02-16T10:52:09;101161.06;;;17.78;58.77
70976;BME280;58635;51.198;6.010;2024-02-16T10:54:38;101158.91;;;17.75;59.30
70976;BME280;58635;51.198;6.010;2024-02-16T10:57:08;101160.16;;;17.73;59.12
70976;BME280;58635;51.198;6.010;2024-02-16T10:59:41;101165.06;;;17.69;59.74
70976;BME280;58635;51.198;6.010;2024-02-16T11:02:11;101170.50;;;17.68;59.42
70976;BME280;58635;51.198;6.010;2024-02-16T11:04:39;101170.50;;;17.68;59.73
70976;BME280;58635;51.198;6.010;2024-02-16T11:07:31;101175.97;;;17.66;59.88
70976;BME280;58635;51.198;6.010;2024-02-16T11:09:59;101180.16;;;17.67;59.84
70976;BME280;58635;51.198;6.010;2024-02-16T11:12:33;101184.97;;;17.70;59.98
70976;BME280;58635;51.198;6.010;2024-02-16T11:14:59;101186.78;;;17.70;60.14
70976;BME280;58635;51.198;6.010;2024-02-16T11:17:25;101191.44;;;17.68;60.23
70976;BME280;58635;51.198;6.010;2024-02-16T11:19:53;101194.03;;;17.68;60.15
70976;BME280;58635;51.198;6.010;2024-02-16T11:22:20;101202.13;;;17.66;59.94
70976;BME280;58635;51.198;6.010;2024-02-16T11:24:47;101195.88;;;17.67;59.94
70976;BME280;58635;51.198;6.010;2024-02-16T11:27:13;101198.84;;;17.71;60.31
70976;BME280;58635;51.198;6.010;2024-02-16T11:29:46;101200.66;;;17.70;60.26
70976;BME280;58635;51.198;6.010;2024-02-16T11:32:12;101200.31;;;17.67;60.16
70976;BME280;58635;51.198;6.010;2024-02-16T11:34:38;101199.75;;;17.65;60.25
70976;BME280;58635;51.198;6.010;2024-02-16T11:37:04;101206.22;;;17.62;60.44
70976;BME280;58635;51.198;6.010;2024-02-16T11:39:32;101211.44;;;17.62;60.51
70976;BME280;58635;51.198;6.010;2024-02-16T11:42:07;101210.88;;;17.60;60.79
70976;BME280;58635;51.198;6.010;2024-02-16T11:44:36;101210.78;;;17.55;60.63
70976;BME280;58635;51.198;6.010;2024-02-16T11:47:02;101219.88;;;17.52;60.87
70976;BME280;58635;51.198;6.010;2024-02-16T11:49:29;101212.47;;;17.49;60.75
70976;BME280;58635;51.198;6.010;2024-02-16T11:51:55;101222.94;;;17.49;61.01
70976;BME280;58635;51.198;6.010;2024-02-16T11:54:20;101219.19;;;17.45;60.81
70976;BME280;58635;51.198;6.010;2024-02-16T11:56:47;101221.00;;;17.45;61.16
70976;BME280;58635;51.198;6.010;2024-02-16T11:59:17;101224.09;;;17.42;61.46
70976;BME280;58635;51.198;6.010;2024-02-16T12:01:53;101226.47;;;17.43;61.43
70976;BME280;58635;51.198;6.010;2024-02-16T12:06:52;101224.28;;;17.40;61.56
70976;BME280;58635;51.198;6.010;2024-02-16T12:09:18;101219.53;;;17.37;61.49
70976;BME280;58635;51.198;6.010;2024-02-16T12:11:44;101225.56;;;17.38;61.46
70976;BME280;58635;51.198;6.010;2024-02-16T12:14:10;101219.28;;;17.39;61.51
70976;BME280;58635;51.198;6.010;2024-02-16T12:16:37;101225.31;;;17.39;61.67
70976;BME280;58635;51.198;6.010;2024-02-16T12:19:05;101225.31;;;17.39;61.55
70976;BME280;58635;51.198;6.010;2024-02-16T12:21:31;101231.56;;;17.38;61.75
70976;BME280;58635;51.198;6.010;2024-02-16T12:23:56;101230.53;;;17.39;62.01
70976;BME280;58635;51.198;6.010;2024-02-16T12:26:21;101231.13;;;17.41;61.91
70976;BME280;58635;51.198;6.010;2024-02-16T12:28:48;101234.75;;;17.40;61.87
70976;BME280;58635;51.198;6.010;2024-02-16T12:31:19;101238.63;;;17.38;62.26
70976;BME280;58635;51.198;6.010;2024-02-16T12:33:44;101240.09;;;17.34;62.32
70976;BME280;58635;51.198;6.010;2024-02-16T12:36:09;101243.53;;;17.34;61.98
70976;BME280;58635;51.198;6.010;2024-02-16T12:38:35;101249.53;;;17.35;62.09
70976;BME280;58635;51.198;6.010;2024-02-16T12:41:00;101242.50;;;17.35;61.70
70976;BME280;58635;51.198;6.010;2024-02-16T12:43:25;101247.72;;;17.35;61.83
70976;BME280;58635;51.198;6.010;2024-02-16T12:45:51;101247.50;;;17.37;62.15
70976;BME280;58635;51.198;6.010;2024-02-16T12:48:16;101253.50;;;17.37;62.05
70976;BME280;58635;51.198;6.010;2024-02-16T12:50:41;101256.59;;;17.34;62.32